Station: ELLX - 02/10/2022 18:20Z (il y a 5 minutes)
ELLX 021820Z 30009KT 9999 FEW003 11/10 Q1023 NOSIG
Vent du 300º - 9 kt
Visibilité > 10 km
Nuages épars à 300 pieds
Température: +11ºC - Point de rosée: +10ºC - QNH: 1023 hPa
Pas de changement significatif prévu dans les 2 heures qui suivent l'observation